sensor_id;sensor_type;location;lat;lon;timestamp;P1;durP1;ratioP1;P2;durP2;ratioP2
13816;SDS011;6979;52.116;5.286;2023-08-06T00:00:58;6.37;;;5.87;;
13816;SDS011;6979;52.116;5.286;2023-08-06T00:03:26;6.17;;;5.67;;
13816;SDS011;6979;52.116;5.286;2023-08-06T00:05:53;7.20;;;6.60;;
13816;SDS011;6979;52.116;5.286;2023-08-06T00:08:20;6.33;;;5.83;;
13816;SDS011;6979;52.116;5.286;2023-08-06T00:10:47;6.73;;;6.20;;
13816;SDS011;6979;52.116;5.286;2023-08-06T00:13:16;5.47;;;5.13;;
13816;SDS011;6979;52.116;5.286;2023-08-06T00:15:43;6.60;;;6.10;;
13816;SDS011;6979;52.116;5.286;2023-08-06T00:18:10;6.87;;;6.37;;
13816;SDS011;6979;52.116;5.286;2023-08-06T00:20:38;7.10;;;6.50;;
13816;SDS011;6979;52.116;5.286;2023-08-06T00:23:06;6.70;;;6.10;;
13816;SDS011;6979;52.116;5.286;2023-08-06T00:25:33;6.60;;;6.10;;
13816;SDS011;6979;52.116;5.286;2023-08-06T00:28:00;6.47;;;5.97;;
13816;SDS011;6979;52.116;5.286;2023-08-06T00:30:28;6.63;;;6.13;;
13816;SDS011;6979;52.116;5.286;2023-08-06T00:32:55;5.83;;;5.33;;
13816;SDS011;6979;52.116;5.286;2023-08-06T00:35:22;6.37;;;5.90;;
13816;SDS011;6979;52.116;5.286;2023-08-06T00:37:49;6.00;;;5.40;;
13816;SDS011;6979;52.116;5.286;2023-08-06T00:40:16;6.90;;;6.20;;
13816;SDS011;6979;52.116;5.286;2023-08-06T00:42:47;6.87;;;6.27;;
13816;SDS011;6979;52.116;5.286;2023-08-06T00:45:14;7.67;;;6.07;;
13816;SDS011;6979;52.116;5.286;2023-08-06T00:47:42;6.30;;;5.87;;
13816;SDS011;6979;52.116;5.286;2023-08-06T00:50:11;6.13;;;5.73;;
13816;SDS011;6979;52.116;5.286;2023-08-06T00:52:39;6.17;;;5.73;;
13816;SDS011;6979;52.116;5.286;2023-08-06T00:55:07;5.47;;;5.13;;
13816;SDS011;6979;52.116;5.286;2023-08-06T00:57:34;6.00;;;5.60;;
13816;SDS011;6979;52.116;5.286;2023-08-06T01:00:02;6.63;;;6.13;;
13816;SDS011;6979;52.116;5.286;2023-08-06T01:02:29;5.50;;;5.20;;
13816;SDS011;6979;52.116;5.286;2023-08-06T01:04:58;5.40;;;5.00;;
13816;SDS011;6979;52.116;5.286;2023-08-06T01:07:31;6.50;;;6.00;;
13816;SDS011;6979;52.116;5.286;2023-08-06T01:10:19;6.20;;;5.70;;
13816;SDS011;6979;52.116;5.286;2023-08-06T01:12:55;5.33;;;4.83;;
13816;SDS011;6979;52.116;5.286;2023-08-06T01:15:32;6.37;;;5.77;;
13816;SDS011;6979;52.116;5.286;2023-08-06T01:18:06;5.93;;;5.53;;
13816;SDS011;6979;52.116;5.286;2023-08-06T01:20:35;6.13;;;5.63;;
13816;SDS011;6979;52.116;5.286;2023-08-06T01:23:02;6.23;;;5.73;;
13816;SDS011;6979;52.116;5.286;2023-08-06T01:25:30;6.00;;;5.50;;
13816;SDS011;6979;52.116;5.286;2023-08-06T01:28:03;5.63;;;5.17;;
13816;SDS011;6979;52.116;5.286;2023-08-06T01:30:34;6.47;;;5.80;;
13816;SDS011;6979;52.116;5.286;2023-08-06T01:33:06;6.37;;;5.93;;
13816;SDS011;6979;52.116;5.286;2023-08-06T01:35:42;6.00;;;5.50;;
13816;SDS011;6979;52.116;5.286;2023-08-06T01:38:09;6.10;;;5.67;;
13816;SDS011;6979;52.116;5.286;2023-08-06T01:40:36;6.83;;;6.03;;
13816;SDS011;6979;52.116;5.286;2023-08-06T01:43:03;5.83;;;5.40;;
13816;SDS011;6979;52.116;5.286;2023-08-06T01:45:30;6.70;;;5.47;;
13816;SDS011;6979;52.116;5.286;2023-08-06T01:47:57;6.77;;;6.03;;
13816;SDS011;6979;52.116;5.286;2023-08-06T01:50:24;6.33;;;5.73;;
13816;SDS011;6979;52.116;5.286;2023-08-06T01:52:52;6.23;;;5.73;;
13816;SDS011;6979;52.116;5.286;2023-08-06T01:55:19;6.37;;;5.87;;
13816;SDS011;6979;52.116;5.286;2023-08-06T01:57:46;6.00;;;5.60;;
13816;SDS011;6979;52.116;5.286;2023-08-06T02:00:13;6.20;;;5.60;;
13816;SDS011;6979;52.116;5.286;2023-08-06T02:02:40;6.13;;;5.63;;
13816;SDS011;6979;52.116;5.286;2023-08-06T02:05:07;7.00;;;6.40;;
13816;SDS011;6979;52.116;5.286;2023-08-06T02:07:34;6.40;;;5.90;;
13816;SDS011;6979;52.116;5.286;2023-08-06T02:10:03;6.53;;;5.97;;
13816;SDS011;6979;52.116;5.286;2023-08-06T02:12:31;6.30;;;5.77;;
13816;SDS011;6979;52.116;5.286;2023-08-06T02:14:58;6.73;;;6.13;;
13816;SDS011;6979;52.116;5.286;2023-08-06T02:17:25;5.97;;;5.57;;
13816;SDS011;6979;52.116;5.286;2023-08-06T02:19:52;6.83;;;6.20;;
13816;SDS011;6979;52.116;5.286;2023-08-06T02:22:19;6.20;;;5.07;;
13816;SDS011;6979;52.116;5.286;2023-08-06T02:24:47;8.40;;;6.50;;
13816;SDS011;6979;52.116;5.286;2023-08-06T02:27:17;6.87;;;6.27;;
13816;SDS011;6979;52.116;5.286;2023-08-06T02:29:44;6.90;;;6.23;;
13816;SDS011;6979;52.116;5.286;2023-08-06T02:32:11;6.97;;;6.47;;
13816;SDS011;6979;52.116;5.286;2023-08-06T02:34:38;7.00;;;6.53;;
13816;SDS011;6979;52.116;5.286;2023-08-06T02:37:05;6.97;;;6.47;;
13816;SDS011;6979;52.116;5.286;2023-08-06T02:39:32;7.13;;;5.93;;
13816;SDS011;6979;52.116;5.286;2023-08-06T02:42:00;8.33;;;7.20;;
13816;SDS011;6979;52.116;5.286;2023-08-06T02:44:31;6.77;;;6.17;;
13816;SDS011;6979;52.116;5.286;2023-08-06T02:46:58;7.57;;;6.97;;
13816;SDS011;6979;52.116;5.286;2023-08-06T02:49:25;7.03;;;6.47;;
13816;SDS011;6979;52.116;5.286;2023-08-06T02:51:52;6.80;;;6.30;;
13816;SDS011;6979;52.116;5.286;2023-08-06T02:54:19;7.53;;;7.00;;
13816;SDS011;6979;52.116;5.286;2023-08-06T02:56:46;7.10;;;6.50;;
13816;SDS011;6979;52.116;5.286;2023-08-06T02:59:21;7.37;;;6.83;;
13816;SDS011;6979;52.116;5.286;2023-08-06T03:02:01;7.77;;;6.57;;
13816;SDS011;6979;52.116;5.286;2023-08-06T03:04:39;7.83;;;7.13;;
13816;SDS011;6979;52.116;5.286;2023-08-06T03:07:07;8.03;;;7.33;;
13816;SDS011;6979;52.116;5.286;2023-08-06T03:09:42;7.47;;;6.87;;
13816;SDS011;6979;52.116;5.286;2023-08-06T03:12:09;9.20;;;7.27;;
13816;SDS011;6979;52.116;5.286;2023-08-06T03:14:37;7.80;;;7.20;;
13816;SDS011;6979;52.116;5.286;2023-08-06T03:17:07;8.40;;;7.60;;
13816;SDS011;6979;52.116;5.286;2023-08-06T03:19:36;8.23;;;7.63;;
13816;SDS011;6979;52.116;5.286;2023-08-06T03:22:04;7.20;;;6.70;;
13816;SDS011;6979;52.116;5.286;2023-08-06T03:24:33;7.63;;;7.10;;
13816;SDS011;6979;52.116;5.286;2023-08-06T03:27:00;8.53;;;7.93;;
13816;SDS011;6979;52.116;5.286;2023-08-06T03:29:28;7.47;;;6.97;;
13816;SDS011;6979;52.116;5.286;2023-08-06T03:31:58;8.33;;;7.53;;
13816;SDS011;6979;52.116;5.286;2023-08-06T03:34:27;8.20;;;7.70;;
13816;SDS011;6979;52.116;5.286;2023-08-06T03:36:55;8.00;;;7.47;;
13816;SDS011;6979;52.116;5.286;2023-08-06T03:39:22;7.90;;;7.40;;
13816;SDS011;6979;52.116;5.286;2023-08-06T03:41:49;7.97;;;7.17;;
13816;SDS011;6979;52.116;5.286;2023-08-06T03:44:15;8.27;;;7.67;;
13816;SDS011;6979;52.116;5.286;2023-08-06T03:46:43;7.73;;;7.23;;
13816;SDS011;6979;52.116;5.286;2023-08-06T03:49:10;8.40;;;7.50;;
13816;SDS011;6979;52.116;5.286;2023-08-06T03:51:39;7.60;;;7.10;;
13816;SDS011;6979;52.116;5.286;2023-08-06T03:54:06;7.83;;;7.27;;
13816;SDS011;6979;52.116;5.286;2023-08-06T03:56:33;8.00;;;7.40;;
13816;SDS011;6979;52.116;5.286;2023-08-06T03:59:00;7.70;;;7.17;;
13816;SDS011;6979;52.116;5.286;2023-08-06T04:01:26;7.87;;;7.37;;
13816;SDS011;6979;52.116;5.286;2023-08-06T04:03:53;8.40;;;7.70;;
13816;SDS011;6979;52.116;5.286;2023-08-06T04:06:20;8.37;;;7.13;;
13816;SDS011;6979;52.116;5.286;2023-08-06T04:08:50;8.10;;;7.50;;
13816;SDS011;6979;52.116;5.286;2023-08-06T04:11:17;7.53;;;6.93;;
13816;SDS011;6979;52.116;5.286;2023-08-06T04:13:44;6.83;;;6.23;;
13816;SDS011;6979;52.116;5.286;2023-08-06T04:16:11;7.07;;;6.57;;
13816;SDS011;6979;52.116;5.286;2023-08-06T04:18:39;7.60;;;7.10;;
13816;SDS011;6979;52.116;5.286;2023-08-06T04:21:07;7.43;;;6.93;;
13816;SDS011;6979;52.116;5.286;2023-08-06T04:23:34;6.97;;;6.50;;
13816;SDS011;6979;52.116;5.286;2023-08-06T04:26:05;7.10;;;6.60;;
13816;SDS011;6979;52.116;5.286;2023-08-06T04:28:34;7.40;;;6.70;;
13816;SDS011;6979;52.116;5.286;2023-08-06T04:31:01;6.20;;;5.80;;
13816;SDS011;6979;52.116;5.286;2023-08-06T04:33:30;7.50;;;6.83;;
13816;SDS011;6979;52.116;5.286;2023-08-06T04:36:00;6.20;;;5.80;;
13816;SDS011;6979;52.116;5.286;2023-08-06T04:38:27;7.40;;;6.90;;
13816;SDS011;6979;52.116;5.286;2023-08-06T04:40:55;7.03;;;6.53;;
13816;SDS011;6979;52.116;5.286;2023-08-06T04:43:25;8.10;;;7.40;;
13816;SDS011;6979;52.116;5.286;2023-08-06T04:45:53;7.93;;;7.33;;
13816;SDS011;6979;52.116;5.286;2023-08-06T04:48:20;8.77;;;7.97;;
13816;SDS011;6979;52.116;5.286;2023-08-06T04:50:48;8.10;;;7.50;;
13816;SDS011;6979;52.116;5.286;2023-08-06T04:53:16;9.17;;;8.57;;
13816;SDS011;6979;52.116;5.286;2023-08-06T04:55:43;8.50;;;7.90;;
13816;SDS011;6979;52.116;5.286;2023-08-06T04:58:10;8.93;;;8.33;;
13816;SDS011;6979;52.116;5.286;2023-08-06T05:00:41;9.13;;;8.50;;
13816;SDS011;6979;52.116;5.286;2023-08-06T05:03:08;9.40;;;8.60;;
13816;SDS011;6979;52.116;5.286;2023-08-06T05:05:35;9.87;;;9.17;;
13816;SDS011;6979;52.116;5.286;2023-08-06T05:08:02;9.80;;;9.00;;
13816;SDS011;6979;52.116;5.286;2023-08-06T05:10:29;9.70;;;8.80;;
13816;SDS011;6979;52.116;5.286;2023-08-06T05:12:56;9.80;;;9.10;;
13816;SDS011;6979;52.116;5.286;2023-08-06T05:15:23;10.37;;;9.67;;
13816;SDS011;6979;52.116;5.286;2023-08-06T05:17:52;10.77;;;9.87;;
13816;SDS011;6979;52.116;5.286;2023-08-06T05:20:20;12.33;;;11.17;;
13816;SDS011;6979;52.116;5.286;2023-08-06T05:22:47;11.80;;;10.90;;
13816;SDS011;6979;52.116;5.286;2023-08-06T05:25:14;12.03;;;11.10;;
13816;SDS011;6979;52.116;5.286;2023-08-06T05:27:41;11.53;;;10.53;;
13816;SDS011;6979;52.116;5.286;2023-08-06T05:30:08;12.50;;;11.40;;
13816;SDS011;6979;52.116;5.286;2023-08-06T05:32:37;12.53;;;11.53;;
13816;SDS011;6979;52.116;5.286;2023-08-06T05:35:07;12.60;;;11.67;;
13816;SDS011;6979;52.116;5.286;2023-08-06T05:37:34;12.10;;;11.10;;
13816;SDS011;6979;52.116;5.286;2023-08-06T05:40:01;12.47;;;11.43;;
13816;SDS011;6979;52.116;5.286;2023-08-06T05:42:29;11.80;;;10.80;;
13816;SDS011;6979;52.116;5.286;2023-08-06T05:44:56;11.50;;;10.60;;
13816;SDS011;6979;52.116;5.286;2023-08-06T05:47:26;11.00;;;10.20;;
13816;SDS011;6979;52.116;5.286;2023-08-06T05:49:53;10.70;;;9.80;;
13816;SDS011;6979;52.116;5.286;2023-08-06T05:52:21;10.47;;;9.57;;
13816;SDS011;6979;52.116;5.286;2023-08-06T05:54:48;11.40;;;10.50;;
13816;SDS011;6979;52.116;5.286;2023-08-06T05:57:15;11.20;;;10.30;;
13816;SDS011;6979;52.116;5.286;2023-08-06T05:59:42;10.57;;;9.73;;
13816;SDS011;6979;52.116;5.286;2023-08-06T06:02:10;11.47;;;10.47;;
13816;SDS011;6979;52.116;5.286;2023-08-06T06:04:40;11.07;;;10.20;;
13816;SDS011;6979;52.116;5.286;2023-08-06T06:07:07;10.57;;;9.77;;
13816;SDS011;6979;52.116;5.286;2023-08-06T06:09:35;10.73;;;9.93;;
13816;SDS011;6979;52.116;5.286;2023-08-06T06:12:03;11.97;;;11.07;;
13816;SDS011;6979;52.116;5.286;2023-08-06T06:14:30;12.60;;;11.50;;
13816;SDS011;6979;52.116;5.286;2023-08-06T06:16:58;12.40;;;11.50;;
13816;SDS011;6979;52.116;5.286;2023-08-06T06:19:26;12.83;;;11.73;;
13816;SDS011;6979;52.116;5.286;2023-08-06T06:21:53;12.63;;;11.67;;
13816;SDS011;6979;52.116;5.286;2023-08-06T06:24:22;12.73;;;11.63;;
13816;SDS011;6979;52.116;5.286;2023-08-06T06:26:51;13.07;;;12.03;;
13816;SDS011;6979;52.116;5.286;2023-08-06T06:29:17;12.47;;;11.57;;
13816;SDS011;6979;52.116;5.286;2023-08-06T06:31:44;12.93;;;11.87;;
13816;SDS011;6979;52.116;5.286;2023-08-06T06:34:11;12.30;;;11.17;;
13816;SDS011;6979;52.116;5.286;2023-08-06T06:36:38;12.37;;;11.47;;
13816;SDS011;6979;52.116;5.286;2023-08-06T06:39:05;13.03;;;11.97;;
13816;SDS011;6979;52.116;5.286;2023-08-06T06:41:33;11.33;;;10.50;;
13816;SDS011;6979;52.116;5.286;2023-08-06T06:44:10;11.23;;;10.43;;
13816;SDS011;6979;52.116;5.286;2023-08-06T06:46:37;9.83;;;8.93;;
13816;SDS011;6979;52.116;5.286;2023-08-06T06:49:04;7.03;;;6.53;;
13816;SDS011;6979;52.116;5.286;2023-08-06T06:51:31;5.17;;;4.77;;
13816;SDS011;6979;52.116;5.286;2023-08-06T06:53:58;3.17;;;2.97;;
13816;SDS011;6979;52.116;5.286;2023-08-06T06:56:24;2.17;;;1.97;;
13816;SDS011;6979;52.116;5.286;2023-08-06T06:58:51;1.40;;;1.40;;
13816;SDS011;6979;52.116;5.286;2023-08-06T07:01:20;1.30;;;1.30;;
13816;SDS011;6979;52.116;5.286;2023-08-06T07:03:47;1.20;;;1.20;;
13816;SDS011;6979;52.116;5.286;2023-08-06T07:06:14;1.07;;;1.07;;
13816;SDS011;6979;52.116;5.286;2023-08-06T07:08:43;0.90;;;0.90;;
13816;SDS011;6979;52.116;5.286;2023-08-06T07:11:10;1.00;;;1.00;;
13816;SDS011;6979;52.116;5.286;2023-08-06T07:13:37;1.20;;;0.90;;
13816;SDS011;6979;52.116;5.286;2023-08-06T07:16:04;1.63;;;1.27;;
13816;SDS011;6979;52.116;5.286;2023-08-06T07:18:32;1.00;;;1.00;;
13816;SDS011;6979;52.116;5.286;2023-08-06T07:20:59;1.10;;;1.10;;
13816;SDS011;6979;52.116;5.286;2023-08-06T07:23:26;1.50;;;1.40;;
13816;SDS011;6979;52.116;5.286;2023-08-06T07:25:53;1.33;;;1.33;;
13816;SDS011;6979;52.116;5.286;2023-08-06T07:28:20;1.87;;;1.77;;
13816;SDS011;6979;52.116;5.286;2023-08-06T07:30:47;2.33;;;1.73;;
13816;SDS011;6979;52.116;5.286;2023-08-06T07:33:14;1.67;;;1.67;;
13816;SDS011;6979;52.116;5.286;2023-08-06T07:35:42;1.40;;;1.40;;
13816;SDS011;6979;52.116;5.286;2023-08-06T07:38:09;1.77;;;1.67;;
13816;SDS011;6979;52.116;5.286;2023-08-06T07:40:37;2.00;;;1.90;;
13816;SDS011;6979;52.116;5.286;2023-08-06T07:43:04;2.17;;;2.07;;
13816;SDS011;6979;52.116;5.286;2023-08-06T07:45:34;2.70;;;2.50;;
13816;SDS011;6979;52.116;5.286;2023-08-06T07:48:01;2.50;;;2.40;;
13816;SDS011;6979;52.116;5.286;2023-08-06T07:50:29;2.70;;;2.60;;
13816;SDS011;6979;52.116;5.286;2023-08-06T07:52:58;2.50;;;2.40;;
13816;SDS011;6979;52.116;5.286;2023-08-06T07:55:25;2.30;;;2.20;;
13816;SDS011;6979;52.116;5.286;2023-08-06T07:57:53;2.33;;;2.23;;
13816;SDS011;6979;52.116;5.286;2023-08-06T08:00:20;2.40;;;2.30;;
13816;SDS011;6979;52.116;5.286;2023-08-06T08:02:47;2.27;;;2.07;;
13816;SDS011;6979;52.116;5.286;2023-08-06T08:05:14;2.60;;;2.40;;
13816;SDS011;6979;52.116;5.286;2023-08-06T08:07:41;2.73;;;2.30;;
13816;SDS011;6979;52.116;5.286;2023-08-06T08:10:10;2.00;;;1.93;;
13816;SDS011;6979;52.116;5.286;2023-08-06T08:12:37;2.40;;;2.10;;
13816;SDS011;6979;52.116;5.286;2023-08-06T08:15:04;2.50;;;2.40;;
13816;SDS011;6979;52.116;5.286;2023-08-06T08:17:32;2.40;;;2.30;;
13816;SDS011;6979;52.116;5.286;2023-08-06T08:19:59;1.93;;;1.83;;
13816;SDS011;6979;52.116;5.286;2023-08-06T08:22:26;2.60;;;2.40;;
13816;SDS011;6979;52.116;5.286;2023-08-06T08:24:53;2.60;;;2.40;;
13816;SDS011;6979;52.116;5.286;2023-08-06T08:27:21;3.07;;;2.33;;
13816;SDS011;6979;52.116;5.286;2023-08-06T08:29:48;2.43;;;2.30;;
13816;SDS011;6979;52.116;5.286;2023-08-06T08:32:15;2.80;;;2.60;;
13816;SDS011;6979;52.116;5.286;2023-08-06T08:34:42;2.30;;;2.20;;
13816;SDS011;6979;52.116;5.286;2023-08-06T08:37:09;3.03;;;2.83;;
13816;SDS011;6979;52.116;5.286;2023-08-06T08:39:36;4.77;;;2.80;;
13816;SDS011;6979;52.116;5.286;2023-08-06T08:42:03;2.77;;;2.67;;
13816;SDS011;6979;52.116;5.286;2023-08-06T08:44:34;3.13;;;2.93;;
13816;SDS011;6979;52.116;5.286;2023-08-06T08:47:04;3.40;;;3.10;;
13816;SDS011;6979;52.116;5.286;2023-08-06T08:49:32;3.27;;;3.07;;
13816;SDS011;6979;52.116;5.286;2023-08-06T08:52:00;3.50;;;3.20;;
13816;SDS011;6979;52.116;5.286;2023-08-06T08:54:30;3.60;;;3.40;;
13816;SDS011;6979;52.116;5.286;2023-08-06T08:56:58;4.30;;;4.00;;
13816;SDS011;6979;52.116;5.286;2023-08-06T08:59:25;4.53;;;4.23;;
13816;SDS011;6979;52.116;5.286;2023-08-06T09:01:55;4.80;;;4.50;;
13816;SDS011;6979;52.116;5.286;2023-08-06T09:04:23;5.27;;;4.77;;
13816;SDS011;6979;52.116;5.286;2023-08-06T09:06:52;4.83;;;4.43;;
13816;SDS011;6979;52.116;5.286;2023-08-06T09:09:23;5.57;;;5.13;;
13816;SDS011;6979;52.116;5.286;2023-08-06T09:11:52;4.77;;;4.47;;
13816;SDS011;6979;52.116;5.286;2023-08-06T09:14:26;5.47;;;5.07;;
13816;SDS011;6979;52.116;5.286;2023-08-06T09:16:54;5.53;;;5.13;;
13816;SDS011;6979;52.116;5.286;2023-08-06T09:19:22;4.60;;;4.30;;
13816;SDS011;6979;52.116;5.286;2023-08-06T09:21:50;5.50;;;5.00;;
13816;SDS011;6979;52.116;5.286;2023-08-06T09:24:18;4.87;;;4.47;;
13816;SDS011;6979;52.116;5.286;2023-08-06T09:26:45;4.27;;;3.97;;
13816;SDS011;6979;52.116;5.286;2023-08-06T09:29:12;4.60;;;4.30;;
13816;SDS011;6979;52.116;5.286;2023-08-06T09:31:40;4.67;;;3.50;;
13816;SDS011;6979;52.116;5.286;2023-08-06T09:34:14;4.40;;;4.10;;
13816;SDS011;6979;52.116;5.286;2023-08-06T09:36:42;3.53;;;3.33;;
13816;SDS011;6979;52.116;5.286;2023-08-06T09:39:12;3.90;;;3.70;;
13816;SDS011;6979;52.116;5.286;2023-08-06T09:41:40;3.70;;;3.50;;
13816;SDS011;6979;52.116;5.286;2023-08-06T09:44:12;4.70;;;4.30;;
13816;SDS011;6979;52.116;5.286;2023-08-06T09:46:43;3.67;;;3.37;;
13816;SDS011;6979;52.116;5.286;2023-08-06T09:49:15;4.43;;;4.13;;
13816;SDS011;6979;52.116;5.286;2023-08-06T09:51:42;4.83;;;4.43;;
13816;SDS011;6979;52.116;5.286;2023-08-06T09:54:10;4.47;;;4.17;;
13816;SDS011;6979;52.116;5.286;2023-08-06T09:56:38;3.70;;;3.50;;
13816;SDS011;6979;52.116;5.286;2023-08-06T09:59:06;4.57;;;4.20;;
13816;SDS011;6979;52.116;5.286;2023-08-06T10:01:33;4.40;;;4.10;;
13816;SDS011;6979;52.116;5.286;2023-08-06T10:04:01;4.47;;;4.13;;
13816;SDS011;6979;52.116;5.286;2023-08-06T10:06:31;4.37;;;4.07;;
13816;SDS011;6979;52.116;5.286;2023-08-06T10:09:01;4.10;;;3.80;;
13816;SDS011;6979;52.116;5.286;2023-08-06T10:11:28;4.40;;;4.00;;
13816;SDS011;6979;52.116;5.286;2023-08-06T10:13:58;4.13;;;3.80;;
13816;SDS011;6979;52.116;5.286;2023-08-06T10:16:30;4.80;;;4.37;;
13816;SDS011;6979;52.116;5.286;2023-08-06T10:18:57;4.17;;;3.70;;
13816;SDS011;6979;52.116;5.286;2023-08-06T10:21:25;3.60;;;3.30;;
13816;SDS011;6979;52.116;5.286;2023-08-06T10:23:56;4.47;;;4.07;;
13816;SDS011;6979;52.116;5.286;2023-08-06T10:26:25;3.50;;;3.30;;
13816;SDS011;6979;52.116;5.286;2023-08-06T10:28:53;4.27;;;3.47;;
13816;SDS011;6979;52.116;5.286;2023-08-06T10:31:20;4.30;;;3.97;;
13816;SDS011;6979;52.116;5.286;2023-08-06T10:34:11;3.93;;;3.63;;
13816;SDS011;6979;52.116;5.286;2023-08-06T10:36:38;4.90;;;3.20;;
13816;SDS011;6979;52.116;5.286;2023-08-06T10:39:06;3.23;;;3.00;;
13816;SDS011;6979;52.116;5.286;2023-08-06T10:41:39;3.23;;;3.03;;
13816;SDS011;6979;52.116;5.286;2023-08-06T10:44:09;3.50;;;3.20;;
13816;SDS011;6979;52.116;5.286;2023-08-06T10:46:37;3.20;;;3.00;;
13816;SDS011;6979;52.116;5.286;2023-08-06T10:49:04;3.40;;;3.20;;
13816;SDS011;6979;52.116;5.286;2023-08-06T10:51:32;3.93;;;3.00;;
13816;SDS011;6979;52.116;5.286;2023-08-06T10:53:59;3.27;;;2.97;;
13816;SDS011;6979;52.116;5.286;2023-08-06T10:56:29;3.53;;;3.20;;
13816;SDS011;6979;52.116;5.286;2023-08-06T10:58:56;2.80;;;2.60;;
13816;SDS011;6979;52.116;5.286;2023-08-06T11:01:23;3.00;;;2.80;;
13816;SDS011;6979;52.116;5.286;2023-08-06T11:03:54;3.63;;;3.33;;
13816;SDS011;6979;52.116;5.286;2023-08-06T11:06:22;3.03;;;2.83;;
13816;SDS011;6979;52.116;5.286;2023-08-06T11:08:50;3.00;;;2.80;;
13816;SDS011;6979;52.116;5.286;2023-08-06T11:11:19;4.00;;;3.30;;
13816;SDS011;6979;52.116;5.286;2023-08-06T11:13:47;3.60;;;3.40;;
13816;SDS011;6979;52.116;5.286;2023-08-06T11:16:16;3.07;;;2.87;;
13816;SDS011;6979;52.116;5.286;2023-08-06T11:18:44;3.20;;;2.90;;
13816;SDS011;6979;52.116;5.286;2023-08-06T11:21:11;2.47;;;2.27;;
13816;SDS011;6979;52.116;5.286;2023-08-06T11:23:38;3.50;;;2.60;;
13816;SDS011;6979;52.116;5.286;2023-08-06T11:26:06;2.90;;;2.60;;
13816;SDS011;6979;52.116;5.286;2023-08-06T11:28:33;2.80;;;2.60;;
13816;SDS011;6979;52.116;5.286;2023-08-06T11:31:02;2.40;;;2.27;;
13816;SDS011;6979;52.116;5.286;2023-08-06T11:33:29;2.90;;;2.70;;
13816;SDS011;6979;52.116;5.286;2023-08-06T11:35:57;3.30;;;2.93;;
13816;SDS011;6979;52.116;5.286;2023-08-06T11:38:28;2.83;;;2.63;;
13816;SDS011;6979;52.116;5.286;2023-08-06T11:40:55;2.33;;;2.17;;
13816;SDS011;6979;52.116;5.286;2023-08-06T11:43:22;3.30;;;3.10;;
13816;SDS011;6979;52.116;5.286;2023-08-06T11:45:50;2.20;;;2.00;;
13816;SDS011;6979;52.116;5.286;2023-08-06T11:48:20;2.70;;;2.50;;
13816;SDS011;6979;52.116;5.286;2023-08-06T11:50:47;2.80;;;2.47;;
13816;SDS011;6979;52.116;5.286;2023-08-06T11:53:14;3.13;;;2.30;;
13816;SDS011;6979;52.116;5.286;2023-08-06T11:55:41;2.03;;;1.93;;
13816;SDS011;6979;52.116;5.286;2023-08-06T11:58:09;1.97;;;1.77;;
13816;SDS011;6979;52.116;5.286;2023-08-06T12:00:38;2.10;;;1.93;;
13816;SDS011;6979;52.116;5.286;2023-08-06T12:03:05;2.47;;;2.27;;
13816;SDS011;6979;52.116;5.286;2023-08-06T12:05:33;1.80;;;1.70;;
13816;SDS011;6979;52.116;5.286;2023-08-06T12:08:01;1.70;;;1.33;;
13816;SDS011;6979;52.116;5.286;2023-08-06T12:10:29;2.10;;;2.00;;
13816;SDS011;6979;52.116;5.286;2023-08-06T12:12:57;1.50;;;1.40;;
13816;SDS011;6979;52.116;5.286;2023-08-06T12:15:24;1.60;;;1.50;;
13816;SDS011;6979;52.116;5.286;2023-08-06T12:17:51;1.50;;;1.40;;
13816;SDS011;6979;52.116;5.286;2023-08-06T12:20:18;1.43;;;1.20;;
13816;SDS011;6979;52.116;5.286;2023-08-06T12:22:46;2.67;;;1.53;;
13816;SDS011;6979;52.116;5.286;2023-08-06T12:25:13;1.30;;;1.20;;
13816;SDS011;6979;52.116;5.286;2023-08-06T12:27:40;1.30;;;1.20;;
13816;SDS011;6979;52.116;5.286;2023-08-06T12:30:09;2.63;;;1.20;;
13816;SDS011;6979;52.116;5.286;2023-08-06T12:32:37;1.60;;;1.50;;
13816;SDS011;6979;52.116;5.286;2023-08-06T12:35:04;2.27;;;1.10;;
13816;SDS011;6979;52.116;5.286;2023-08-06T12:37:33;1.40;;;1.30;;
13816;SDS011;6979;52.116;5.286;2023-08-06T12:40:02;1.70;;;1.30;;
13816;SDS011;6979;52.116;5.286;2023-08-06T12:42:29;2.40;;;1.30;;
13816;SDS011;6979;52.116;5.286;2023-08-06T12:44:56;1.37;;;1.27;;
13816;SDS011;6979;52.116;5.286;2023-08-06T12:47:23;1.60;;;1.50;;
13816;SDS011;6979;52.116;5.286;2023-08-06T12:49:50;2.00;;;1.20;;
13816;SDS011;6979;52.116;5.286;2023-08-06T12:52:17;1.50;;;1.40;;
13816;SDS011;6979;52.116;5.286;2023-08-06T12:54:44;1.27;;;1.27;;
13816;SDS011;6979;52.116;5.286;2023-08-06T12:57:13;1.40;;;1.30;;
13816;SDS011;6979;52.116;5.286;2023-08-06T12:59:40;1.60;;;1.50;;
13816;SDS011;6979;52.116;5.286;2023-08-06T13:02:07;1.57;;;1.47;;
13816;SDS011;6979;52.116;5.286;2023-08-06T13:04:34;1.43;;;1.33;;
13816;SDS011;6979;52.116;5.286;2023-08-06T13:07:00;1.57;;;1.47;;
13816;SDS011;6979;52.116;5.286;2023-08-06T13:09:28;1.60;;;1.40;;
13816;SDS011;6979;52.116;5.286;2023-08-06T13:11:55;1.83;;;1.73;;
13816;SDS011;6979;52.116;5.286;2023-08-06T13:14:24;2.50;;;1.80;;
13816;SDS011;6979;52.116;5.286;2023-08-06T13:16:51;2.03;;;1.70;;
13816;SDS011;6979;52.116;5.286;2023-08-06T13:19:18;1.80;;;1.70;;
13816;SDS011;6979;52.116;5.286;2023-08-06T13:21:58;2.00;;;1.90;;
13816;SDS011;6979;52.116;5.286;2023-08-06T13:24:27;1.60;;;1.50;;
13816;SDS011;6979;52.116;5.286;2023-08-06T13:26:54;2.20;;;2.00;;
13816;SDS011;6979;52.116;5.286;2023-08-06T13:29:21;1.50;;;1.50;;
13816;SDS011;6979;52.116;5.286;2023-08-06T13:31:49;1.77;;;1.67;;
13816;SDS011;6979;52.116;5.286;2023-08-06T13:34:16;1.80;;;1.70;;
13816;SDS011;6979;52.116;5.286;2023-08-06T13:36:43;1.83;;;1.73;;
13816;SDS011;6979;52.116;5.286;2023-08-06T13:39:10;2.60;;;1.80;;
13816;SDS011;6979;52.116;5.286;2023-08-06T13:41:37;1.67;;;1.57;;
13816;SDS011;6979;52.116;5.286;2023-08-06T13:44:05;1.40;;;1.30;;
13816;SDS011;6979;52.116;5.286;2023-08-06T13:46:32;2.07;;;1.83;;
13816;SDS011;6979;52.116;5.286;2023-08-06T13:49:01;1.80;;;1.70;;
13816;SDS011;6979;52.116;5.286;2023-08-06T13:51:28;3.63;;;1.60;;
13816;SDS011;6979;52.116;5.286;2023-08-06T13:53:56;2.07;;;1.97;;
13816;SDS011;6979;52.116;5.286;2023-08-06T13:56:23;1.93;;;1.50;;
13816;SDS011;6979;52.116;5.286;2023-08-06T13:58:50;1.63;;;1.53;;
13816;SDS011;6979;52.116;5.286;2023-08-06T14:01:17;2.07;;;1.90;;
13816;SDS011;6979;52.116;5.286;2023-08-06T14:03:44;1.93;;;1.83;;
13816;SDS011;6979;52.116;5.286;2023-08-06T14:06:12;2.70;;;1.77;;
13816;SDS011;6979;52.116;5.286;2023-08-06T14:08:39;2.27;;;1.90;;
13816;SDS011;6979;52.116;5.286;2023-08-06T14:11:06;1.80;;;1.70;;
13816;SDS011;6979;52.116;5.286;2023-08-06T14:13:33;3.03;;;2.03;;
13816;SDS011;6979;52.116;5.286;2023-08-06T14:16:00;2.10;;;2.00;;
13816;SDS011;6979;52.116;5.286;2023-08-06T14:18:27;1.73;;;1.63;;
13816;SDS011;6979;52.116;5.286;2023-08-06T14:20:54;1.90;;;1.80;;
13816;SDS011;6979;52.116;5.286;2023-08-06T14:23:23;1.90;;;1.60;;
13816;SDS011;6979;52.116;5.286;2023-08-06T14:25:50;2.03;;;1.90;;
13816;SDS011;6979;52.116;5.286;2023-08-06T14:28:16;1.60;;;1.50;;
13816;SDS011;6979;52.116;5.286;2023-08-06T14:30:43;2.17;;;1.80;;
13816;SDS011;6979;52.116;5.286;2023-08-06T14:33:10;3.37;;;2.27;;
13816;SDS011;6979;52.116;5.286;2023-08-06T14:35:37;2.30;;;1.93;;
13816;SDS011;6979;52.116;5.286;2023-08-06T14:38:04;1.73;;;1.63;;
13816;SDS011;6979;52.116;5.286;2023-08-06T14:40:32;1.67;;;1.60;;
13816;SDS011;6979;52.116;5.286;2023-08-06T14:43:02;2.30;;;2.00;;
13816;SDS011;6979;52.116;5.286;2023-08-06T14:45:31;2.20;;;2.00;;
13816;SDS011;6979;52.116;5.286;2023-08-06T14:47:58;2.43;;;1.77;;
13816;SDS011;6979;52.116;5.286;2023-08-06T14:50:25;4.07;;;2.00;;
13816;SDS011;6979;52.116;5.286;2023-08-06T14:52:52;2.00;;;1.90;;
13816;SDS011;6979;52.116;5.286;2023-08-06T14:55:23;1.73;;;1.63;;
13816;SDS011;6979;52.116;5.286;2023-08-06T14:57:52;3.47;;;2.33;;
13816;SDS011;6979;52.116;5.286;2023-08-06T15:00:19;1.67;;;1.57;;
13816;SDS011;6979;52.116;5.286;2023-08-06T15:02:47;1.90;;;1.70;;